Time;durP1;ratioP1;P1;durP2;ratioP2;P2;SDS_P1;SDS_P2;PMS_P1;PMS_P2;Temp;Humidity;BMP_temperature;BMP_pressure;BME280_temperature;BME280_humidity;BME280_pressure;Samples;Min_cycle;Max_cycle;Signal;HPM_P1;HPM_P2
2022/07/17 00:01:28;;;;;;;7.35;2.13;;;;;;;;;;6238051;23;20102;-78
2022/07/17 00:03:55;;;;;;;7.07;2.35;;;;;;;;;;6239272;23;20020;-78
2022/07/17 00:06:21;;;;;;;5.35;2.17;;;;;;;;;;6237229;23;20058;-77
2022/07/17 00:08:47;;;;;;;8.23;2.20;;;;;;;;;;6238077;23;20460;-77
2022/07/17 00:11:13;;;;;;;10.63;2.72;;;;;;;;;;6211385;23;20033;-78
2022/07/17 00:13:39;;;;;;;6.72;2.33;;;;;;;;;;6240043;23;20046;-77
2022/07/17 00:16:05;;;;;;;9.77;2.58;;;;;;;;;;6238574;23;20012;-78
2022/07/17 00:18:32;;;;;;;10.13;2.20;;;;;;;;;;6241900;23;20090;-78
2022/07/17 00:20:58;;;;;;;6.53;2.33;;;;;;;;;;6186492;23;20052;-78
2022/07/17 00:23:24;;;;;;;8.57;2.95;;;;;;;;;;6212166;23;20044;-78
2022/07/17 00:25:50;;;;;;;10.13;2.80;;;;;;;;;;6237963;23;20023;-78
2022/07/17 00:28:16;;;;;;;4.85;2.35;;;;;;;;;;6212416;23;20055;-78
2022/07/17 00:30:42;;;;;;;8.68;2.72;;;;;;;;;;6237004;23;20025;-79
2022/07/17 00:33:08;;;;;;;8.10;2.53;;;;;;;;;;6212122;23;20020;-79
2022/07/17 00:35:34;;;;;;;5.50;2.40;;;;;;;;;;6237729;23;20035;-79
2022/07/17 00:38:00;;;;;;;7.93;2.28;;;;;;;;;;6237538;23;20334;-78
2022/07/17 00:40:27;;;;;;;4.65;2.30;;;;;;;;;;6238284;23;20020;-78
2022/07/17 00:42:53;;;;;;;10.95;2.88;;;;;;;;;;6210718;23;20124;-77
2022/07/17 00:45:20;;;;;;;6.15;2.78;;;;;;;;;;6211391;23;20021;-79
2022/07/17 00:47:51;;;;;;;6.70;2.70;;;;;;;;;;6236172;23;20016;-78
2022/07/17 00:50:17;;;;;;;7.78;2.50;;;;;;;;;;6208660;23;20030;-79
2022/07/17 00:52:44;;;;;;;8.48;2.80;;;;;;;;;;6185856;23;20019;-77
2022/07/17 00:55:12;;;;;;;5.22;2.97;;;;;;;;;;6186013;23;20017;-79
2022/07/17 00:57:40;;;;;;;8.07;3.05;;;;;;;;;;6239202;23;20047;-78
2022/07/17 01:00:09;;;;;;;11.40;3.30;;;;;;;;;;6212392;23;20344;-78
2022/07/17 01:02:36;;;;;;;9.77;3.13;;;;;;;;;;6240268;23;20094;-78
2022/07/17 01:05:02;;;;;;;4.47;2.65;;;;;;;;;;6239741;23;20111;-78
2022/07/17 01:07:28;;;;;;;7.95;3.00;;;;;;;;;;6238134;23;20471;-78
2022/07/17 01:09:54;;;;;;;7.32;2.63;;;;;;;;;;6237889;23;20023;-78
2022/07/17 01:12:20;;;;;;;9.27;3.17;;;;;;;;;;6239189;23;20019;-78
2022/07/17 01:14:47;;;;;;;9.65;2.90;;;;;;;;;;6211865;23;20077;-78
2022/07/17 01:17:13;;;;;;;8.35;3.05;;;;;;;;;;6238843;23;20020;-78
2022/07/17 01:19:39;;;;;;;8.98;3.30;;;;;;;;;;6238686;23;20044;-78
2022/07/17 01:22:05;;;;;;;11.32;2.90;;;;;;;;;;6213032;23;20017;-77
2022/07/17 01:24:31;;;;;;;6.07;2.92;;;;;;;;;;6239058;23;20023;-77
2022/07/17 01:26:58;;;;;;;7.72;3.05;;;;;;;;;;6238241;23;20521;-79
2022/07/17 01:29:24;;;;;;;7.03;2.65;;;;;;;;;;6210877;23;20024;-78
2022/07/17 01:31:50;;;;;;;6.03;3.03;;;;;;;;;;6238515;23;20020;-80
2022/07/17 01:34:16;;;;;;;4.88;2.60;;;;;;;;;;6215324;23;20109;-80
2022/07/17 01:36:43;;;;;;;4.70;2.78;;;;;;;;;;6240106;23;20094;-80
2022/07/17 01:39:09;;;;;;;8.57;3.28;;;;;;;;;;6240002;23;20376;-79
2022/07/17 01:41:35;;;;;;;5.13;2.67;;;;;;;;;;6238169;23;20118;-79
2022/07/17 01:44:03;;;;;;;6.40;2.92;;;;;;;;;;6239613;23;20041;-79
2022/07/17 01:46:29;;;;;;;6.18;2.90;;;;;;;;;;6237484;23;20036;-80
2022/07/17 01:48:55;;;;;;;5.28;3.05;;;;;;;;;;6212649;23;20024;-78
2022/07/17 01:51:21;;;;;;;6.80;3.45;;;;;;;;;;6240859;23;20020;-79
2022/07/17 01:53:47;;;;;;;4.38;2.97;;;;;;;;;;6225118;23;20020;-78
2022/07/17 01:56:14;;;;;;;11.77;2.95;;;;;;;;;;6254551;23;20016;-78
2022/07/17 01:58:40;;;;;;;9.50;2.95;;;;;;;;;;6206203;23;20016;-78
2022/07/17 02:01:06;;;;;;;8.07;2.92;;;;;;;;;;6244642;23;20031;-79
2022/07/17 02:03:32;;;;;;;9.68;3.60;;;;;;;;;;6240536;23;20350;-77
2022/07/17 02:05:58;;;;;;;7.60;3.05;;;;;;;;;;6211552;23;20343;-78
2022/07/17 02:08:24;;;;;;;8.93;3.00;;;;;;;;;;6238109;23;20040;-77
2022/07/17 02:10:50;;;;;;;8.55;3.10;;;;;;;;;;6210218;23;20027;-77
2022/07/17 02:13:16;;;;;;;7.55;3.28;;;;;;;;;;6237881;23;20043;-78
2022/07/17 02:15:42;;;;;;;11.00;3.40;;;;;;;;;;6212467;23;20391;-78
2022/07/17 02:18:08;;;;;;;8.52;3.30;;;;;;;;;;6210997;23;20035;-78
2022/07/17 02:20:34;;;;;;;6.13;3.33;;;;;;;;;;6237041;23;20047;-78
2022/07/17 02:23:00;;;;;;;7.13;3.20;;;;;;;;;;6211013;23;20035;-78
2022/07/17 02:25:26;;;;;;;6.07;3.13;;;;;;;;;;6237400;23;20081;-78
2022/07/17 02:27:53;;;;;;;7.90;3.05;;;;;;;;;;6237769;23;20012;-79
2022/07/17 02:30:19;;;;;;;9.60;3.05;;;;;;;;;;6239562;23;20761;-78
2022/07/17 02:32:46;;;;;;;7.25;3.28;;;;;;;;;;6238111;23;20016;-79
2022/07/17 02:35:12;;;;;;;12.00;3.10;;;;;;;;;;6238518;23;20046;-78
2022/07/17 02:37:41;;;;;;;9.13;3.42;;;;;;;;;;6237764;23;20023;-79
2022/07/17 02:40:08;;;;;;;9.90;3.42;;;;;;;;;;6209356;23;20016;-78
2022/07/17 02:42:34;;;;;;;5.20;3.28;;;;;;;;;;6210167;23;20024;-78
2022/07/17 02:45:00;;;;;;;5.93;3.13;;;;;;;;;;6238545;23;20017;-78
2022/07/17 02:47:30;;;;;;;9.45;2.92;;;;;;;;;;6238641;23;20020;-79
2022/07/17 02:49:56;;;;;;;6.70;3.20;;;;;;;;;;6239361;23;20031;-78
2022/07/17 02:52:22;;;;;;;5.53;3.35;;;;;;;;;;6238603;23;20035;-78
2022/07/17 02:54:48;;;;;;;7.07;3.58;;;;;;;;;;6238165;23;20095;-78
2022/07/17 02:57:15;;;;;;;13.48;3.53;;;;;;;;;;6238236;23;20027;-78
2022/07/17 02:59:41;;;;;;;9.20;3.70;;;;;;;;;;6239210;23;20738;-77
2022/07/17 03:02:07;;;;;;;12.68;3.70;;;;;;;;;;6239408;23;20052;-78
2022/07/17 03:04:33;;;;;;;11.32;3.22;;;;;;;;;;6237929;23;20078;-79
2022/07/17 03:06:59;;;;;;;10.57;4.22;;;;;;;;;;6237279;23;20055;-78
2022/07/17 03:09:25;;;;;;;11.05;3.47;;;;;;;;;;6240383;23;20400;-78
2022/07/17 03:11:52;;;;;;;11.30;4.05;;;;;;;;;;6211266;23;20027;-79
2022/07/17 03:14:18;;;;;;;12.77;3.60;;;;;;;;;;6237540;23;20020;-77
2022/07/17 03:16:44;;;;;;;6.10;3.47;;;;;;;;;;6237688;23;20012;-78
2022/07/17 03:19:10;;;;;;;10.23;4.03;;;;;;;;;;6237089;23;20087;-78
2022/07/17 03:21:36;;;;;;;8.82;3.85;;;;;;;;;;6237242;23;20020;-78
2022/07/17 03:24:02;;;;;;;7.65;3.58;;;;;;;;;;6237014;23;20027;-78
2022/07/17 03:26:28;;;;;;;5.35;3.17;;;;;;;;;;6210342;23;20044;-78
2022/07/17 03:28:55;;;;;;;6.03;3.47;;;;;;;;;;6237607;23;20020;-77
2022/07/17 03:31:21;;;;;;;7.22;3.53;;;;;;;;;;6210581;23;20020;-77
2022/07/17 03:33:47;;;;;;;6.30;3.08;;;;;;;;;;6210848;23;20031;-78
2022/07/17 03:36:13;;;;;;;8.43;3.78;;;;;;;;;;6211847;23;20101;-78
2022/07/17 03:38:39;;;;;;;5.35;3.42;;;;;;;;;;6209327;23;20502;-78
2022/07/17 03:41:05;;;;;;;7.10;3.65;;;;;;;;;;6236660;23;20524;-77
2022/07/17 03:43:31;;;;;;;7.70;3.90;;;;;;;;;;6211453;23;20087;-79
2022/07/17 03:45:57;;;;;;;8.40;3.85;;;;;;;;;;6238200;23;20115;-77
2022/07/17 03:48:23;;;;;;;15.52;3.95;;;;;;;;;;6239938;23;20012;-77
2022/07/17 03:50:49;;;;;;;14.38;4.80;;;;;;;;;;6239416;23;20062;-76
2022/07/17 03:53:16;;;;;;;8.95;3.72;;;;;;;;;;6238486;23;20020;-78
2022/07/17 03:55:42;;;;;;;5.13;3.25;;;;;;;;;;6238701;23;20030;-77
2022/07/17 03:58:08;;;;;;;5.88;3.80;;;;;;;;;;6237433;23;20016;-77
2022/07/17 04:00:34;;;;;;;5.47;3.50;;;;;;;;;;6237125;23;20016;-78
2022/07/17 04:03:00;;;;;;;11.45;3.70;;;;;;;;;;6236956;23;20892;-77
2022/07/17 04:05:26;;;;;;;7.85;3.72;;;;;;;;;;6235481;23;20476;-77
2022/07/17 04:07:52;;;;;;;8.05;3.60;;;;;;;;;;6183212;23;20582;-78
2022/07/17 04:10:18;;;;;;;8.57;4.03;;;;;;;;;;6208084;23;20073;-78
2022/07/17 04:12:45;;;;;;;11.65;3.90;;;;;;;;;;6207696;23;20024;-77
2022/07/17 04:15:11;;;;;;;10.45;3.85;;;;;;;;;;6236044;23;20044;-79
2022/07/17 04:17:37;;;;;;;10.02;3.78;;;;;;;;;;6208940;23;20016;-76
2022/07/17 04:20:04;;;;;;;8.98;3.65;;;;;;;;;;6209676;23;20445;-77
2022/07/17 04:22:30;;;;;;;5.75;3.78;;;;;;;;;;6235862;23;21066;-77
2022/07/17 04:24:56;;;;;;;10.82;3.78;;;;;;;;;;6235851;23;20017;-78
2022/07/17 04:27:22;;;;;;;8.73;4.05;;;;;;;;;;6235986;23;20020;-78
2022/07/17 04:29:48;;;;;;;8.68;3.70;;;;;;;;;;6235379;23;20020;-78
2022/07/17 04:32:14;;;;;;;9.02;4.03;;;;;;;;;;6239426;23;20432;-79
2022/07/17 04:34:40;;;;;;;9.68;3.35;;;;;;;;;;6212470;23;20563;-78
2022/07/17 04:37:06;;;;;;;10.32;3.85;;;;;;;;;;6240054;23;20376;-79
2022/07/17 04:39:33;;;;;;;6.85;3.92;;;;;;;;;;6240632;23;20048;-78
2022/07/17 04:41:59;;;;;;;10.48;4.43;;;;;;;;;;6223073;23;20353;-78
2022/07/17 04:44:25;;;;;;;6.80;3.95;;;;;;;;;;6249142;23;20302;-77
2022/07/17 04:46:51;;;;;;;9.27;4.57;;;;;;;;;;6249770;23;20016;-78
2022/07/17 04:49:17;;;;;;;10.05;4.18;;;;;;;;;;6243686;23;20452;-78
2022/07/17 04:51:43;;;;;;;11.75;4.18;;;;;;;;;;6238181;23;20080;-78
2022/07/17 04:54:09;;;;;;;7.18;4.20;;;;;;;;;;6211421;23;20725;-77
2022/07/17 04:56:35;;;;;;;10.40;4.78;;;;;;;;;;6185931;23;20387;-78
2022/07/17 04:59:01;;;;;;;10.10;3.88;;;;;;;;;;6237515;23;20102;-78
2022/07/17 05:01:27;;;;;;;8.93;3.85;;;;;;;;;;6237815;23;20050;-77
2022/07/17 05:03:53;;;;;;;6.72;4.38;;;;;;;;;;6238696;23;20047;-79
2022/07/17 05:06:20;;;;;;;8.02;4.00;;;;;;;;;;6237411;23;20051;-78
2022/07/17 05:08:46;;;;;;;9.75;4.10;;;;;;;;;;6238455;23;20040;-78
2022/07/17 05:11:12;;;;;;;9.38;4.40;;;;;;;;;;6237246;23;20016;-77
2022/07/17 05:13:38;;;;;;;6.30;3.45;;;;;;;;;;6207994;23;20032;-77
2022/07/17 05:16:05;;;;;;;8.10;3.90;;;;;;;;;;6207710;23;20443;-78
2022/07/17 05:18:31;;;;;;;8.73;3.85;;;;;;;;;;6206280;23;20333;-78
2022/07/17 05:20:57;;;;;;;8.73;3.92;;;;;;;;;;6207485;23;20823;-78
2022/07/17 05:23:26;;;;;;;9.30;3.40;;;;;;;;;;6207048;23;20024;-78
2022/07/17 05:25:52;;;;;;;7.68;3.25;;;;;;;;;;6180667;23;20078;-78
2022/07/17 05:28:18;;;;;;;7.88;3.38;;;;;;;;;;6207264;23;20091;-77
2022/07/17 05:30:44;;;;;;;8.05;3.90;;;;;;;;;;6179614;23;20020;-77
2022/07/17 05:33:13;;;;;;;11.65;3.63;;;;;;;;;;6180253;23;20059;-77
2022/07/17 05:35:42;;;;;;;13.85;4.22;;;;;;;;;;6206968;23;20392;-78
2022/07/17 05:38:10;;;;;;;9.07;3.63;;;;;;;;;;6207154;23;20044;-76
2022/07/17 05:40:36;;;;;;;9.43;3.55;;;;;;;;;;6156154;23;20031;-78
2022/07/17 05:43:02;;;;;;;7.57;3.47;;;;;;;;;;6207178;23;20076;-78
2022/07/17 05:45:28;;;;;;;12.45;3.78;;;;;;;;;;6206986;23;20020;-78
2022/07/17 05:47:54;;;;;;;13.13;4.05;;;;;;;;;;6207029;23;20021;-77
2022/07/17 05:50:20;;;;;;;6.22;3.97;;;;;;;;;;6208567;23;20047;-76
2022/07/17 05:52:46;;;;;;;7.95;3.30;;;;;;;;;;6154718;23;20025;-76
2022/07/17 05:55:12;;;;;;;6.55;3.53;;;;;;;;;;6205842;23;20012;-77
2022/07/17 05:57:38;;;;;;;5.82;3.20;;;;;;;;;;6206196;23;21007;-77
2022/07/17 06:00:05;;;;;;;7.47;3.10;;;;;;;;;;6207110;23;20536;-77
2022/07/17 06:02:31;;;;;;;9.60;3.30;;;;;;;;;;6208672;23;20023;-78
2022/07/17 06:04:57;;;;;;;12.48;3.60;;;;;;;;;;6210351;23;20017;-78
2022/07/17 06:07:23;;;;;;;9.88;2.90;;;;;;;;;;6208203;23;20118;-78
2022/07/17 06:09:49;;;;;;;8.20;3.05;;;;;;;;;;6209609;23;20021;-78
2022/07/17 06:12:15;;;;;;;7.55;2.72;;;;;;;;;;6197512;23;20101;-79
2022/07/17 06:14:41;;;;;;;14.10;3.08;;;;;;;;;;6239310;23;20360;-78
2022/07/17 06:17:07;;;;;;;7.90;2.72;;;;;;;;;;6239466;23;20016;-79
2022/07/17 06:19:33;;;;;;;10.93;2.97;;;;;;;;;;6240502;23;20505;-78
2022/07/17 06:21:59;;;;;;;14.32;3.05;;;;;;;;;;6239256;23;20060;-78
2022/07/17 06:24:25;;;;;;;9.57;2.33;;;;;;;;;;6212137;23;20078;-78
2022/07/17 06:26:51;;;;;;;6.47;2.28;;;;;;;;;;6213361;23;20508;-78
2022/07/17 06:29:17;;;;;;;10.95;2.45;;;;;;;;;;6239229;23;20015;-79
2022/07/17 06:31:43;;;;;;;12.10;2.00;;;;;;;;;;6238572;23;20451;-78
2022/07/17 06:34:09;;;;;;;9.02;2.17;;;;;;;;;;6239937;23;20012;-77
2022/07/17 06:36:35;;;;;;;7.05;2.20;;;;;;;;;;6239705;23;20074;-76
2022/07/17 06:39:02;;;;;;;9.98;2.63;;;;;;;;;;6212741;23;20062;-78
2022/07/17 06:41:28;;;;;;;12.38;2.47;;;;;;;;;;6239905;23;20031;-79
2022/07/17 06:43:54;;;;;;;8.45;2.28;;;;;;;;;;6211654;23;20024;-77
2022/07/17 06:46:20;;;;;;;7.93;2.03;;;;;;;;;;6238991;23;20027;-78
2022/07/17 06:48:51;;;;;;;4.93;2.28;;;;;;;;;;6186871;23;20016;-78
2022/07/17 06:51:18;;;;;;;6.63;2.00;;;;;;;;;;6239108;23;20102;-77
2022/07/17 06:53:44;;;;;;;7.30;2.65;;;;;;;;;;6238470;23;20391;-76
2022/07/17 06:56:10;;;;;;;5.15;2.25;;;;;;;;;;6238178;23;20017;-77
2022/07/17 06:58:36;;;;;;;6.72;1.90;;;;;;;;;;6212335;23;20031;-77
2022/07/17 07:01:03;;;;;;;6.25;2.05;;;;;;;;;;6211249;23;20038;-77
2022/07/17 07:03:29;;;;;;;12.27;2.70;;;;;;;;;;6237908;23;20027;-78
2022/07/17 07:05:55;;;;;;;8.88;2.15;;;;;;;;;;6210864;23;20104;-78
2022/07/17 07:08:24;;;;;;;10.38;1.67;;;;;;;;;;6237571;23;20027;-78
2022/07/17 07:10:50;;;;;;;4.28;1.70;;;;;;;;;;6210128;23;20051;-77
2022/07/17 07:13:16;;;;;;;4.80;1.45;;;;;;;;;;6209606;23;20650;-78
2022/07/17 07:15:42;;;;;;;6.63;1.70;;;;;;;;;;6208053;23;20065;-78
2022/07/17 07:18:09;;;;;;;5.45;1.77;;;;;;;;;;6208457;23;20071;-79
2022/07/17 07:20:41;;;;;;;6.57;1.40;;;;;;;;;;6205057;23;20453;-78
2022/07/17 07:23:07;;;;;;;6.35;1.40;;;;;;;;;;6178675;23;20025;-78
2022/07/17 07:25:33;;;;;;;8.80;1.95;;;;;;;;;;6206934;23;20039;-78
2022/07/17 07:27:59;;;;;;;10.00;2.17;;;;;;;;;;6209996;23;20024;-78
2022/07/17 07:30:25;;;;;;;6.10;1.60;;;;;;;;;;6214777;23;20020;-79
2022/07/17 07:32:51;;;;;;;7.47;1.90;;;;;;;;;;6215038;23;20021;-78
2022/07/17 07:35:17;;;;;;;6.30;1.60;;;;;;;;;;6218851;23;20023;-79
2022/07/17 07:37:44;;;;;;;7.63;2.00;;;;;;;;;;6213027;23;20035;-79
2022/07/17 07:40:10;;;;;;;9.40;2.28;;;;;;;;;;6206521;23;20412;-79
2022/07/17 07:42:37;;;;;;;7.07;2.28;;;;;;;;;;6180426;23;20032;-78
2022/07/17 07:45:03;;;;;;;7.97;1.40;;;;;;;;;;6156712;23;20023;-79
2022/07/17 07:47:29;;;;;;;7.70;1.95;;;;;;;;;;6204672;23;20020;-78
2022/07/17 07:49:55;;;;;;;6.22;1.30;;;;;;;;;;6204993;23;20024;-78
2022/07/17 07:52:21;;;;;;;3.38;1.58;;;;;;;;;;6178847;23;20586;-78
2022/07/17 07:54:47;;;;;;;5.10;2.15;;;;;;;;;;6177586;23;20449;-78
2022/07/17 07:57:14;;;;;;;7.25;2.63;;;;;;;;;;6203200;23;20016;-78
2022/07/17 07:59:40;;;;;;;4.07;1.67;;;;;;;;;;6151912;23;20028;-77
2022/07/17 08:02:09;;;;;;;5.38;1.50;;;;;;;;;;6151543;23;20016;-78
2022/07/17 08:04:36;;;;;;;11.75;2.20;;;;;;;;;;6152687;23;20020;-79
2022/07/17 08:07:02;;;;;;;11.98;1.60;;;;;;;;;;6203102;23;20522;-78
2022/07/17 08:09:28;;;;;;;13.30;1.45;;;;;;;;;;6204501;23;20656;-78
2022/07/17 08:11:54;;;;;;;12.55;1.80;;;;;;;;;;6204726;23;20024;-78
2022/07/17 08:14:20;;;;;;;6.05;1.70;;;;;;;;;;6178291;23;20440;-78
2022/07/17 08:16:46;;;;;;;13.95;2.17;;;;;;;;;;6178801;23;20017;-79
2022/07/17 08:19:12;;;;;;;15.30;2.15;;;;;;;;;;6205201;23;20016;-78
2022/07/17 08:21:38;;;;;;;8.05;1.80;;;;;;;;;;6177292;23;20107;-77
2022/07/17 08:24:05;;;;;;;14.73;2.03;;;;;;;;;;6179090;23;20023;-79
2022/07/17 08:26:31;;;;;;;3.60;1.25;;;;;;;;;;6181006;23;20025;-79
2022/07/17 08:28:57;;;;;;;6.40;2.20;;;;;;;;;;6179615;23;20353;-79
2022/07/17 08:31:25;;;;;;;10.52;1.77;;;;;;;;;;6180510;23;20464;-77
2022/07/17 08:33:51;;;;;;;8.52;1.88;;;;;;;;;;6177405;23;20016;-78
2022/07/17 08:36:18;;;;;;;9.90;1.65;;;;;;;;;;6206244;23;20056;-79
2022/07/17 08:38:44;;;;;;;9.57;1.70;;;;;;;;;;6206388;23;20016;-80
2022/07/17 08:41:10;;;;;;;8.60;1.70;;;;;;;;;;6154360;23;20024;-80
2022/07/17 08:43:36;;;;;;;8.60;1.55;;;;;;;;;;6179482;23;20138;-79
2022/07/17 08:46:03;;;;;;;5.68;1.55;;;;;;;;;;6178911;23;20012;-80
2022/07/17 08:48:31;;;;;;;10.35;1.77;;;;;;;;;;6180222;23;20364;-78
2022/07/17 08:50:59;;;;;;;6.85;1.52;;;;;;;;;;6180668;23;20020;-79
2022/07/17 08:53:31;;;;;;;9.02;2.30;;;;;;;;;;6180308;23;20078;-80
2022/07/17 08:55:57;;;;;;;5.80;2.00;;;;;;;;;;6180687;23;20028;-80
2022/07/17 08:58:24;;;;;;;4.03;1.27;;;;;;;;;;6179285;23;20290;-80
2022/07/17 09:00:50;;;;;;;12.75;1.92;;;;;;;;;;6179007;23;20028;-79
2022/07/17 09:03:17;;;;;;;9.50;1.70;;;;;;;;;;6176362;23;20025;-80
2022/07/17 09:06:20;;;;;;;3.72;1.80;;;;;;;;;;6154846;23;20025;-81
2022/07/17 09:08:46;;;;;;;7.70;1.40;;;;;;;;;;6175722;23;20079;-80
2022/07/17 09:11:12;;;;;;;4.20;1.40;;;;;;;;;;6207292;23;20021;-79
2022/07/17 09:13:43;;;;;;;7.13;2.05;;;;;;;;;;6203412;23;20020;-80
2022/07/17 09:16:13;;;;;;;5.93;1.73;;;;;;;;;;6208168;23;20019;-81
2022/07/17 09:18:46;;;;;;;7.90;1.90;;;;;;;;;;6182083;23;20027;-81
2022/07/17 09:21:23;;;;;;;6.40;1.50;;;;;;;;;;6209886;23;20021;-80
2022/07/17 09:23:59;;;;;;;6.78;1.77;;;;;;;;;;6206741;23;20078;-79
2022/07/17 09:26:25;;;;;;;7.90;2.83;;;;;;;;;;6209194;23;20031;-80
2022/07/17 09:28:51;;;;;;;4.53;1.75;;;;;;;;;;6159802;23;20028;-80
2022/07/17 09:31:27;;;;;;;6.78;1.83;;;;;;;;;;6207928;23;20021;-79
2022/07/17 09:33:54;;;;;;;5.50;1.40;;;;;;;;;;6210977;23;20039;-80
2022/07/17 09:36:26;;;;;;;7.10;1.67;;;;;;;;;;6212465;23;20023;-80
2022/07/17 09:38:56;;;;;;;10.95;1.88;;;;;;;;;;6212471;23;20024;-80
2022/07/17 09:41:23;;;;;;;7.40;1.75;;;;;;;;;;6211935;23;20028;-81
2022/07/17 09:43:52;;;;;;;6.10;1.50;;;;;;;;;;6183090;23;20028;-80
2022/07/17 09:46:22;;;;;;;6.65;1.65;;;;;;;;;;6210944;23;20151;-80
2022/07/17 09:48:51;;;;;;;5.05;1.70;;;;;;;;;;6190507;23;20034;-79
2022/07/17 09:51:18;;;;;;;3.22;1.25;;;;;;;;;;6215433;23;20048;-80
2022/07/17 09:53:46;;;;;;;8.02;1.50;;;;;;;;;;6186968;23;20016;-79
2022/07/17 09:56:15;;;;;;;5.65;1.90;;;;;;;;;;6187129;23;20016;-79
2022/07/17 09:58:43;;;;;;;7.00;1.98;;;;;;;;;;6215105;23;20457;-79
2022/07/17 10:01:10;;;;;;;8.93;1.77;;;;;;;;;;6211784;23;20039;-80
2022/07/17 10:03:42;;;;;;;10.77;2.67;;;;;;;;;;6210064;23;20021;-80
2022/07/17 10:06:10;;;;;;;4.00;1.33;;;;;;;;;;6212654;23;20081;-80
2022/07/17 10:08:39;;;;;;;5.47;1.52;;;;;;;;;;6218044;23;20092;-82
2022/07/17 10:11:15;;;;;;;6.07;1.58;;;;;;;;;;6212718;23;20032;-80
2022/07/17 10:13:45;;;;;;;7.80;1.77;;;;;;;;;;6191068;23;20032;-80
2022/07/17 10:16:13;;;;;;;5.63;1.20;;;;;;;;;;6241866;23;20059;-81
2022/07/17 10:18:41;;;;;;;4.80;1.58;;;;;;;;;;6217370;23;20016;-80
2022/07/17 10:21:10;;;;;;;3.42;1.30;;;;;;;;;;6247219;22;20035;-80
2022/07/17 10:23:39;;;;;;;3.88;1.35;;;;;;;;;;6256174;23;20024;-80
2022/07/17 10:26:05;;;;;;;10.90;1.38;;;;;;;;;;6231820;23;20020;-80
2022/07/17 10:28:51;;;;;;;4.43;1.17;;;;;;;;;;6249296;23;20031;-79
2022/07/17 10:31:24;;;;;;;9.88;1.98;;;;;;;;;;6218212;23;20464;-80
2022/07/17 10:34:09;;;;;;;8.68;1.70;;;;;;;;;;6244231;23;20099;-79
2022/07/17 10:36:43;;;;;;;6.00;1.67;;;;;;;;;;6214248;23;20336;-80
2022/07/17 10:39:13;;;;;;;5.00;1.67;;;;;;;;;;6216202;23;20024;-80
2022/07/17 10:41:42;;;;;;;7.35;1.70;;;;;;;;;;6214637;23;20031;-81
2022/07/17 10:44:09;;;;;;;8.10;1.55;;;;;;;;;;6239713;23;20020;-79
2022/07/17 10:46:42;;;;;;;6.43;1.50;;;;;;;;;;6239709;23;20402;-78
2022/07/17 10:49:14;;;;;;;7.65;1.52;;;;;;;;;;6212560;23;20035;-80
2022/07/17 10:51:40;;;;;;;2.88;1.27;;;;;;;;;;6244729;23;20022;-79
2022/07/17 10:54:06;;;;;;;6.97;1.75;;;;;;;;;;6244409;23;20012;-80
2022/07/17 10:56:32;;;;;;;6.10;1.60;;;;;;;;;;6241684;23;20449;-81
2022/07/17 10:59:01;;;;;;;3.63;1.23;;;;;;;;;;6244144;23;20012;-80
2022/07/17 11:01:28;;;;;;;10.35;1.85;;;;;;;;;;6245093;23;20083;-80
2022/07/17 11:03:59;;;;;;;6.38;1.25;;;;;;;;;;6192256;23;20066;-81
2022/07/17 11:06:26;;;;;;;4.93;1.42;;;;;;;;;;6217330;23;20020;-80
2022/07/17 11:09:00;;;;;;;3.95;1.42;;;;;;;;;;6245932;23;20016;-80
2022/07/17 11:11:42;;;;;;;6.63;1.63;;;;;;;;;;6242017;23;20024;-81
2022/07/17 11:14:18;;;;;;;4.80;1.75;;;;;;;;;;6249022;23;20031;-79
2022/07/17 11:16:46;;;;;;;6.55;1.30;;;;;;;;;;6242994;23;20097;-80
2022/07/17 11:19:34;;;;;;;6.15;1.52;;;;;;;;;;6212991;23;20028;-80
2022/07/17 11:22:01;;;;;;;12.07;1.90;;;;;;;;;;6187514;23;20139;-80
2022/07/17 11:24:40;;;;;;;6.35;2.22;;;;;;;;;;6239273;23;20083;-80
2022/07/17 11:27:06;;;;;;;8.85;1.95;;;;;;;;;;6238790;23;20096;-79
2022/07/17 11:29:38;;;;;;;5.72;1.73;;;;;;;;;;6237311;23;20092;-79
2022/07/17 11:32:04;;;;;;;4.88;1.50;;;;;;;;;;6210044;23;20119;-78
2022/07/17 11:34:30;;;;;;;6.80;1.35;;;;;;;;;;6236895;23;20016;-79
2022/07/17 11:37:00;;;;;;;4.82;1.38;;;;;;;;;;6238008;23;20066;-80
2022/07/17 11:39:37;;;;;;;8.00;1.65;;;;;;;;;;6237460;23;20209;-79
2022/07/17 11:42:04;;;;;;;6.13;1.40;;;;;;;;;;6235789;23;20016;-81
2022/07/17 11:44:30;;;;;;;6.57;1.50;;;;;;;;;;6236844;23;20100;-80
2022/07/17 11:46:56;;;;;;;5.47;1.40;;;;;;;;;;6209309;23;20016;-80
2022/07/17 11:49:40;;;;;;;6.93;1.85;;;;;;;;;;6210376;23;20016;-80
2022/07/17 11:52:10;;;;;;;6.80;1.60;;;;;;;;;;6184272;23;20035;-79
2022/07/17 11:54:55;;;;;;;7.07;1.58;;;;;;;;;;6239164;23;20035;-83
2022/07/17 11:57:27;;;;;;;5.20;1.65;;;;;;;;;;6238545;23;20435;-82
2022/07/17 12:00:05;;;;;;;8.38;1.50;;;;;;;;;;6241656;23;20028;-83
2022/07/17 12:02:31;;;;;;;6.28;1.48;;;;;;;;;;6240251;23;20024;-83
2022/07/17 12:04:59;;;;;;;7.00;2.40;;;;;;;;;;6240108;23;20027;-82
2022/07/17 12:07:26;;;;;;;3.67;1.50;;;;;;;;;;6213353;23;20042;-82
2022/07/17 12:09:53;;;;;;;5.13;1.50;;;;;;;;;;6186638;23;20102;-82
2022/07/17 12:12:20;;;;;;;4.85;1.25;;;;;;;;;;6208794;23;20024;-82
2022/07/17 12:14:52;;;;;;;7.18;1.63;;;;;;;;;;6238715;23;20024;-82
2022/07/17 12:17:22;;;;;;;4.97;1.80;;;;;;;;;;6239455;23;20024;-82
2022/07/17 12:19:51;;;;;;;11.60;1.70;;;;;;;;;;6212453;23;20046;-83
2022/07/17 12:22:29;;;;;;;6.35;1.42;;;;;;;;;;6213330;23;20020;-84
2022/07/17 12:25:18;;;;;;;5.18;1.20;;;;;;;;;;6242617;23;20091;-84
2022/07/17 12:27:53;;;;;;;6.13;1.45;;;;;;;;;;6241570;23;20344;-84
2022/07/17 12:30:34;;;;;;;6.28;1.67;;;;;;;;;;6241672;23;20024;-83
2022/07/17 12:33:09;;;;;;;5.43;1.45;;;;;;;;;;6242085;23;20494;-84
2022/07/17 12:35:42;;;;;;;2.42;1.10;;;;;;;;;;6215719;23;20059;-83
2022/07/17 12:38:11;;;;;;;4.30;1.70;;;;;;;;;;6241429;23;20082;-85
2022/07/17 12:40:37;;;;;;;7.88;1.33;;;;;;;;;;6215919;23;20103;-84
2022/07/17 12:43:03;;;;;;;3.25;1.60;;;;;;;;;;6238823;23;20035;-80
2022/07/17 12:45:29;;;;;;;4.88;1.40;;;;;;;;;;6240380;23;20365;-79
2022/07/17 12:47:55;;;;;;;7.97;1.73;;;;;;;;;;6211486;23;20460;-79
2022/07/17 12:50:21;;;;;;;6.55;1.50;;;;;;;;;;6239918;23;20028;-80
2022/07/17 12:52:47;;;;;;;6.05;1.60;;;;;;;;;;6237996;23;20078;-80
2022/07/17 12:55:13;;;;;;;3.00;1.33;;;;;;;;;;6239877;23;20012;-80
2022/07/17 12:57:39;;;;;;;7.15;1.98;;;;;;;;;;6211707;23;20290;-80
2022/07/17 13:00:05;;;;;;;6.10;1.70;;;;;;;;;;6239532;23;20079;-80
2022/07/17 13:02:32;;;;;;;5.28;1.50;;;;;;;;;;6211538;23;20047;-80
2022/07/17 13:04:58;;;;;;;4.60;1.70;;;;;;;;;;6212299;23;20027;-80
2022/07/17 13:07:24;;;;;;;4.75;1.65;;;;;;;;;;6238579;23;20027;-80
2022/07/17 13:09:50;;;;;;;2.70;1.40;;;;;;;;;;6238365;23;20016;-80
2022/07/17 13:12:16;;;;;;;5.50;1.35;;;;;;;;;;6213005;23;20020;-79
2022/07/17 13:14:42;;;;;;;7.05;1.50;;;;;;;;;;6211720;23;20028;-79
2022/07/17 13:17:08;;;;;;;7.20;1.73;;;;;;;;;;6239905;23;20020;-80
2022/07/17 13:19:34;;;;;;;10.02;1.80;;;;;;;;;;6212327;23;20031;-79
2022/07/17 13:22:02;;;;;;;3.85;1.70;;;;;;;;;;6239325;23;20369;-79
2022/07/17 13:24:29;;;;;;;3.90;1.60;;;;;;;;;;6212987;23;20101;-80
2022/07/17 13:26:55;;;;;;;4.47;1.70;;;;;;;;;;6238272;23;20357;-79
2022/07/17 13:29:21;;;;;;;4.28;1.60;;;;;;;;;;6213207;23;20023;-80
2022/07/17 13:31:47;;;;;;;2.85;1.40;;;;;;;;;;6186656;23;20020;-79
2022/07/17 13:34:13;;;;;;;4.60;1.70;;;;;;;;;;6239767;23;20070;-80
2022/07/17 13:36:39;;;;;;;2.45;1.45;;;;;;;;;;6186433;23;20062;-80
2022/07/17 13:39:05;;;;;;;5.78;1.70;;;;;;;;;;6239025;23;20352;-79
2022/07/17 13:41:34;;;;;;;5.35;2.00;;;;;;;;;;6239465;23;20016;-79
2022/07/17 13:44:00;;;;;;;2.90;2.20;;;;;;;;;;6211772;23;20027;-79
2022/07/17 13:46:26;;;;;;;5.97;2.53;;;;;;;;;;6212673;23;20100;-79
2022/07/17 13:48:55;;;;;;;3.45;2.35;;;;;;;;;;6238027;23;20020;-79
2022/07/17 13:51:21;;;;;;;2.88;2.17;;;;;;;;;;6211963;23;20721;-80
2022/07/17 13:53:47;;;;;;;5.20;2.15;;;;;;;;;;6211335;23;20110;-81
2022/07/17 13:56:13;;;;;;;5.97;2.40;;;;;;;;;;6212306;23;20028;-80
2022/07/17 13:58:39;;;;;;;6.82;2.70;;;;;;;;;;6239158;23;20384;-79
2022/07/17 14:01:05;;;;;;;4.75;2.72;;;;;;;;;;6239270;23;20432;-80
2022/07/17 14:03:32;;;;;;;6.03;2.80;;;;;;;;;;6238731;23;20028;-80
2022/07/17 14:05:58;;;;;;;5.38;2.50;;;;;;;;;;6210853;23;20031;-81
2022/07/17 14:08:24;;;;;;;3.75;2.50;;;;;;;;;;6240250;23;20467;-80
2022/07/17 14:10:50;;;;;;;3.65;2.30;;;;;;;;;;6237634;23;20478;-80
2022/07/17 14:13:16;;;;;;;3.10;2.10;;;;;;;;;;6239201;23;20012;-80
2022/07/17 14:15:43;;;;;;;4.45;2.70;;;;;;;;;;6238802;23;20035;-80
2022/07/17 14:18:09;;;;;;;3.80;2.40;;;;;;;;;;6239293;23;20024;-80
2022/07/17 14:20:35;;;;;;;3.63;2.20;;;;;;;;;;6187405;23;20059;-82
2022/07/17 14:23:01;;;;;;;6.82;2.47;;;;;;;;;;6238671;23;20097;-80
2022/07/17 14:25:27;;;;;;;3.83;2.08;;;;;;;;;;6239486;23;20030;-80
2022/07/17 14:27:53;;;;;;;4.10;1.95;;;;;;;;;;6212082;23;20104;-82
2022/07/17 14:30:19;;;;;;;5.65;2.25;;;;;;;;;;6241245;23;20028;-81
2022/07/17 14:32:45;;;;;;;5.57;2.13;;;;;;;;;;6211856;23;20026;-81
2022/07/17 14:35:11;;;;;;;5.03;2.40;;;;;;;;;;6213071;23;20090;-80
2022/07/17 14:37:37;;;;;;;6.35;2.40;;;;;;;;;;6239329;23;20023;-82
2022/07/17 14:40:04;;;;;;;3.65;2.60;;;;;;;;;;6213994;23;20028;-81
2022/07/17 14:42:33;;;;;;;3.08;2.63;;;;;;;;;;6212905;23;20133;-80